sensor_id;sensor_type;location;lat;lon;timestamp;temperature;humidity
4647;DHT22;2336;47.822;7.564;2023-04-25T00:02:00;10.00;99.90
4647;DHT22;2336;47.822;7.564;2023-04-25T00:04:30;10.00;99.90
4647;DHT22;2336;47.822;7.564;2023-04-25T00:06:59;10.00;99.90
4647;DHT22;2336;47.822;7.564;2023-04-25T00:09:27;9.90;99.90
4647;DHT22;2336;47.822;7.564;2023-04-25T00:11:54;9.90;99.90
4647;DHT22;2336;47.822;7.564;2023-04-25T00:14:21;9.90;99.90
4647;DHT22;2336;47.822;7.564;2023-04-25T00:16:48;9.90;99.90
4647;DHT22;2336;47.822;7.564;2023-04-25T00:19:17;9.80;99.90
4647;DHT22;2336;47.822;7.564;2023-04-25T00:21:45;9.80;99.90
4647;DHT22;2336;47.822;7.564;2023-04-25T00:24:12;9.80;99.90
4647;DHT22;2336;47.822;7.564;2023-04-25T00:26:39;9.80;99.90
4647;DHT22;2336;47.822;7.564;2023-04-25T00:29:05;9.80;99.90
4647;DHT22;2336;47.822;7.564;2023-04-25T00:31:32;9.80;99.90
4647;DHT22;2336;47.822;7.564;2023-04-25T00:33:59;9.70;99.90
4647;DHT22;2336;47.822;7.564;2023-04-25T00:36:26;9.70;99.90
4647;DHT22;2336;47.822;7.564;2023-04-25T00:38:54;9.60;99.90
4647;DHT22;2336;47.822;7.564;2023-04-25T00:41:21;9.60;99.90
4647;DHT22;2336;47.822;7.564;2023-04-25T00:43:48;9.50;99.90
4647;DHT22;2336;47.822;7.564;2023-04-25T00:46:15;9.50;99.90
4647;DHT22;2336;47.822;7.564;2023-04-25T00:48:42;9.50;99.90
4647;DHT22;2336;47.822;7.564;2023-04-25T00:51:10;9.50;99.90
4647;DHT22;2336;47.822;7.564;2023-04-25T00:53:40;9.50;99.90
4647;DHT22;2336;47.822;7.564;2023-04-25T00:56:08;9.50;99.90
4647;DHT22;2336;47.822;7.564;2023-04-25T00:58:35;9.50;99.90
4647;DHT22;2336;47.822;7.564;2023-04-25T01:01:02;9.50;99.90
4647;DHT22;2336;47.822;7.564;2023-04-25T01:03:31;9.50;99.90
4647;DHT22;2336;47.822;7.564;2023-04-25T01:06:01;9.50;99.90
4647;DHT22;2336;47.822;7.564;2023-04-25T01:08:28;9.60;99.90
4647;DHT22;2336;47.822;7.564;2023-04-25T01:10:55;9.60;99.90
4647;DHT22;2336;47.822;7.564;2023-04-25T01:13:23;9.50;99.90
4647;DHT22;2336;47.822;7.564;2023-04-25T01:15:50;9.50;99.90
4647;DHT22;2336;47.822;7.564;2023-04-25T01:18:18;9.50;99.90
4647;DHT22;2336;47.822;7.564;2023-04-25T01:20:46;9.50;99.90
4647;DHT22;2336;47.822;7.564;2023-04-25T01:23:14;9.60;99.90
4647;DHT22;2336;47.822;7.564;2023-04-25T01:25:42;9.60;99.90
4647;DHT22;2336;47.822;7.564;2023-04-25T01:28:09;9.50;99.90
4647;DHT22;2336;47.822;7.564;2023-04-25T01:30:35;9.60;99.90
4647;DHT22;2336;47.822;7.564;2023-04-25T01:33:03;9.50;99.90
4647;DHT22;2336;47.822;7.564;2023-04-25T01:35:31;9.50;99.90
4647;DHT22;2336;47.822;7.564;2023-04-25T01:37:58;9.50;99.90
4647;DHT22;2336;47.822;7.564;2023-04-25T01:40:27;9.40;99.90
4647;DHT22;2336;47.822;7.564;2023-04-25T01:42:54;9.40;99.90
4647;DHT22;2336;47.822;7.564;2023-04-25T01:45:21;9.40;99.90
4647;DHT22;2336;47.822;7.564;2023-04-25T01:47:48;9.40;99.90
4647;DHT22;2336;47.822;7.564;2023-04-25T01:50:16;9.40;99.90
4647;DHT22;2336;47.822;7.564;2023-04-25T01:52:43;9.40;99.90
4647;DHT22;2336;47.822;7.564;2023-04-25T01:55:10;9.30;99.90
4647;DHT22;2336;47.822;7.564;2023-04-25T01:57:38;9.30;99.90
4647;DHT22;2336;47.822;7.564;2023-04-25T02:00:06;9.30;99.90
4647;DHT22;2336;47.822;7.564;2023-04-25T02:02:34;9.20;99.90
4647;DHT22;2336;47.822;7.564;2023-04-25T02:05:01;9.20;99.90
4647;DHT22;2336;47.822;7.564;2023-04-25T02:07:28;9.20;99.90
4647;DHT22;2336;47.822;7.564;2023-04-25T02:09:54;9.20;99.90
4647;DHT22;2336;47.822;7.564;2023-04-25T02:12:21;9.10;99.90
4647;DHT22;2336;47.822;7.564;2023-04-25T02:14:49;9.10;99.90
4647;DHT22;2336;47.822;7.564;2023-04-25T02:17:16;9.10;99.90
4647;DHT22;2336;47.822;7.564;2023-04-25T02:19:43;9.10;99.90
4647;DHT22;2336;47.822;7.564;2023-04-25T02:22:10;9.00;99.90
4647;DHT22;2336;47.822;7.564;2023-04-25T02:24:37;9.00;99.90
4647;DHT22;2336;47.822;7.564;2023-04-25T02:27:03;9.00;99.90
4647;DHT22;2336;47.822;7.564;2023-04-25T02:29:31;9.00;99.90
4647;DHT22;2336;47.822;7.564;2023-04-25T02:31:59;8.90;99.90
4647;DHT22;2336;47.822;7.564;2023-04-25T02:34:25;8.90;99.90
4647;DHT22;2336;47.822;7.564;2023-04-25T02:36:52;8.80;99.90
4647;DHT22;2336;47.822;7.564;2023-04-25T02:39:19;8.80;99.90
4647;DHT22;2336;47.822;7.564;2023-04-25T02:41:47;8.80;99.90
4647;DHT22;2336;47.822;7.564;2023-04-25T02:44:14;8.70;99.90
4647;DHT22;2336;47.822;7.564;2023-04-25T02:46:40;8.70;99.90
4647;DHT22;2336;47.822;7.564;2023-04-25T02:49:09;8.60;99.90
4647;DHT22;2336;47.822;7.564;2023-04-25T02:51:35;8.60;99.90
4647;DHT22;2336;47.822;7.564;2023-04-25T02:54:02;8.50;99.90
4647;DHT22;2336;47.822;7.564;2023-04-25T02:56:29;8.50;99.90
4647;DHT22;2336;47.822;7.564;2023-04-25T02:58:56;8.40;99.90
4647;DHT22;2336;47.822;7.564;2023-04-25T03:01:22;8.40;99.90
4647;DHT22;2336;47.822;7.564;2023-04-25T03:03:49;8.40;99.90
4647;DHT22;2336;47.822;7.564;2023-04-25T03:06:17;8.40;99.90
4647;DHT22;2336;47.822;7.564;2023-04-25T03:08:44;8.40;99.90
4647;DHT22;2336;47.822;7.564;2023-04-25T03:11:11;8.30;99.90
4647;DHT22;2336;47.822;7.564;2023-04-25T03:13:37;8.20;99.90
4647;DHT22;2336;47.822;7.564;2023-04-25T03:16:04;8.20;99.90
4647;DHT22;2336;47.822;7.564;2023-04-25T03:18:31;8.20;99.90
4647;DHT22;2336;47.822;7.564;2023-04-25T03:20:58;8.20;99.90
4647;DHT22;2336;47.822;7.564;2023-04-25T03:23:26;8.20;99.90
4647;DHT22;2336;47.822;7.564;2023-04-25T03:25:53;8.30;99.90
4647;DHT22;2336;47.822;7.564;2023-04-25T03:28:20;8.40;99.90
4647;DHT22;2336;47.822;7.564;2023-04-25T03:30:46;8.40;99.90
4647;DHT22;2336;47.822;7.564;2023-04-25T03:33:13;8.40;99.90
4647;DHT22;2336;47.822;7.564;2023-04-25T03:35:40;8.40;99.90
4647;DHT22;2336;47.822;7.564;2023-04-25T03:38:07;8.40;99.90
4647;DHT22;2336;47.822;7.564;2023-04-25T03:40:36;8.30;99.90
4647;DHT22;2336;47.822;7.564;2023-04-25T03:43:02;8.30;99.90
4647;DHT22;2336;47.822;7.564;2023-04-25T03:45:29;8.30;99.90
4647;DHT22;2336;47.822;7.564;2023-04-25T03:47:56;8.20;99.90
4647;DHT22;2336;47.822;7.564;2023-04-25T03:50:22;8.30;99.90
4647;DHT22;2336;47.822;7.564;2023-04-25T03:52:49;8.30;99.90
4647;DHT22;2336;47.822;7.564;2023-04-25T03:55:16;8.30;99.90
4647;DHT22;2336;47.822;7.564;2023-04-25T03:57:44;8.30;99.90
4647;DHT22;2336;47.822;7.564;2023-04-25T04:00:12;8.40;99.90
4647;DHT22;2336;47.822;7.564;2023-04-25T04:02:39;8.40;99.90
4647;DHT22;2336;47.822;7.564;2023-04-25T04:05:06;8.40;99.90
4647;DHT22;2336;47.822;7.564;2023-04-25T04:07:33;8.40;99.90
4647;DHT22;2336;47.822;7.564;2023-04-25T04:10:05;8.50;99.90
4647;DHT22;2336;47.822;7.564;2023-04-25T04:12:32;8.50;99.90
4647;DHT22;2336;47.822;7.564;2023-04-25T04:15:01;8.40;99.90
4647;DHT22;2336;47.822;7.564;2023-04-25T04:17:29;8.50;99.90
4647;DHT22;2336;47.822;7.564;2023-04-25T04:19:55;8.50;99.90
4647;DHT22;2336;47.822;7.564;2023-04-25T04:22:23;8.60;99.90
4647;DHT22;2336;47.822;7.564;2023-04-25T04:24:50;8.60;99.90
4647;DHT22;2336;47.822;7.564;2023-04-25T04:27:17;8.60;99.90
4647;DHT22;2336;47.822;7.564;2023-04-25T04:29:45;8.70;99.90
4647;DHT22;2336;47.822;7.564;2023-04-25T04:32:13;8.80;99.90
4647;DHT22;2336;47.822;7.564;2023-04-25T04:34:40;8.90;99.90
4647;DHT22;2336;47.822;7.564;2023-04-25T04:37:07;8.90;99.90
4647;DHT22;2336;47.822;7.564;2023-04-25T04:39:35;8.90;99.90
4647;DHT22;2336;47.822;7.564;2023-04-25T04:42:02;8.90;99.90
4647;DHT22;2336;47.822;7.564;2023-04-25T04:44:30;8.90;99.90
4647;DHT22;2336;47.822;7.564;2023-04-25T04:46:58;8.90;99.90
4647;DHT22;2336;47.822;7.564;2023-04-25T04:49:26;8.80;99.90
4647;DHT22;2336;47.822;7.564;2023-04-25T04:51:53;8.80;99.90
4647;DHT22;2336;47.822;7.564;2023-04-25T04:54:20;8.60;99.90
4647;DHT22;2336;47.822;7.564;2023-04-25T04:56:46;8.40;99.90
4647;DHT22;2336;47.822;7.564;2023-04-25T04:59:13;8.20;99.90
4647;DHT22;2336;47.822;7.564;2023-04-25T05:01:40;8.20;99.90
4647;DHT22;2336;47.822;7.564;2023-04-25T05:04:07;8.00;99.90
4647;DHT22;2336;47.822;7.564;2023-04-25T05:06:35;7.90;99.90
4647;DHT22;2336;47.822;7.564;2023-04-25T05:09:02;7.90;99.90
4647;DHT22;2336;47.822;7.564;2023-04-25T05:11:29;7.80;99.90
4647;DHT22;2336;47.822;7.564;2023-04-25T05:13:55;7.80;99.90
4647;DHT22;2336;47.822;7.564;2023-04-25T05:16:22;7.70;99.90
4647;DHT22;2336;47.822;7.564;2023-04-25T05:18:49;7.60;99.90
4647;DHT22;2336;47.822;7.564;2023-04-25T05:21:15;7.50;99.90
4647;DHT22;2336;47.822;7.564;2023-04-25T05:23:44;7.50;99.90
4647;DHT22;2336;47.822;7.564;2023-04-25T05:26:10;7.40;99.90
4647;DHT22;2336;47.822;7.564;2023-04-25T05:28:39;7.40;99.90
4647;DHT22;2336;47.822;7.564;2023-04-25T05:31:06;7.40;99.90
4647;DHT22;2336;47.822;7.564;2023-04-25T05:33:33;7.40;99.90
4647;DHT22;2336;47.822;7.564;2023-04-25T05:35:59;7.40;99.90
4647;DHT22;2336;47.822;7.564;2023-04-25T05:38:26;7.40;99.90
4647;DHT22;2336;47.822;7.564;2023-04-25T05:40:54;7.40;99.90
4647;DHT22;2336;47.822;7.564;2023-04-25T05:43:21;7.40;99.90
4647;DHT22;2336;47.822;7.564;2023-04-25T05:45:48;7.30;99.90
4647;DHT22;2336;47.822;7.564;2023-04-25T05:48:14;7.30;99.90
4647;DHT22;2336;47.822;7.564;2023-04-25T05:50:41;7.20;99.90
4647;DHT22;2336;47.822;7.564;2023-04-25T05:53:08;7.20;99.90
4647;DHT22;2336;47.822;7.564;2023-04-25T05:55:35;7.20;99.90
4647;DHT22;2336;47.822;7.564;2023-04-25T05:58:05;7.20;99.90
4647;DHT22;2336;47.822;7.564;2023-04-25T06:00:31;7.30;99.90
4647;DHT22;2336;47.822;7.564;2023-04-25T06:02:58;7.30;99.90
4647;DHT22;2336;47.822;7.564;2023-04-25T06:05:25;7.30;99.90
4647;DHT22;2336;47.822;7.564;2023-04-25T06:07:52;7.30;99.90
4647;DHT22;2336;47.822;7.564;2023-04-25T06:10:18;7.30;99.90
4647;DHT22;2336;47.822;7.564;2023-04-25T06:12:45;7.30;99.90
4647;DHT22;2336;47.822;7.564;2023-04-25T06:15:13;7.20;99.90
4647;DHT22;2336;47.822;7.564;2023-04-25T06:17:41;7.30;99.90
4647;DHT22;2336;47.822;7.564;2023-04-25T06:20:09;7.20;99.90
4647;DHT22;2336;47.822;7.564;2023-04-25T06:22:35;7.20;99.90
4647;DHT22;2336;47.822;7.564;2023-04-25T06:25:03;7.20;99.90
4647;DHT22;2336;47.822;7.564;2023-04-25T06:27:30;7.20;99.90
4647;DHT22;2336;47.822;7.564;2023-04-25T06:29:56;7.30;99.90
4647;DHT22;2336;47.822;7.564;2023-04-25T06:32:24;7.30;99.90
4647;DHT22;2336;47.822;7.564;2023-04-25T06:34:53;7.30;99.90
4647;DHT22;2336;47.822;7.564;2023-04-25T06:37:19;7.40;99.90
4647;DHT22;2336;47.822;7.564;2023-04-25T06:39:46;7.40;99.90
4647;DHT22;2336;47.822;7.564;2023-04-25T06:42:13;7.50;99.90
4647;DHT22;2336;47.822;7.564;2023-04-25T06:44:40;7.50;99.90
4647;DHT22;2336;47.822;7.564;2023-04-25T06:47:06;7.60;99.90
4647;DHT22;2336;47.822;7.564;2023-04-25T06:49:34;7.60;99.90
4647;DHT22;2336;47.822;7.564;2023-04-25T06:52:01;7.70;99.90
4647;DHT22;2336;47.822;7.564;2023-04-25T06:54:28;7.80;99.90
4647;DHT22;2336;47.822;7.564;2023-04-25T06:56:55;7.80;99.90
4647;DHT22;2336;47.822;7.564;2023-04-25T06:59:22;7.80;99.90
4647;DHT22;2336;47.822;7.564;2023-04-25T07:01:49;7.80;99.90
4647;DHT22;2336;47.822;7.564;2023-04-25T07:04:16;7.90;99.90
4647;DHT22;2336;47.822;7.564;2023-04-25T07:06:44;7.90;99.90
4647;DHT22;2336;47.822;7.564;2023-04-25T07:09:12;8.00;99.90
4647;DHT22;2336;47.822;7.564;2023-04-25T07:11:39;8.10;99.90
4647;DHT22;2336;47.822;7.564;2023-04-25T07:14:06;8.20;99.90
4647;DHT22;2336;47.822;7.564;2023-04-25T07:16:33;8.30;99.90
4647;DHT22;2336;47.822;7.564;2023-04-25T07:18:59;8.30;99.90
4647;DHT22;2336;47.822;7.564;2023-04-25T07:21:26;8.30;99.90
4647;DHT22;2336;47.822;7.564;2023-04-25T07:23:54;8.40;99.90
4647;DHT22;2336;47.822;7.564;2023-04-25T07:26:21;8.40;99.90
4647;DHT22;2336;47.822;7.564;2023-04-25T07:28:47;8.40;99.90
4647;DHT22;2336;47.822;7.564;2023-04-25T07:31:16;8.50;99.90
4647;DHT22;2336;47.822;7.564;2023-04-25T07:33:43;8.50;99.90
4647;DHT22;2336;47.822;7.564;2023-04-25T07:36:10;8.50;99.90
4647;DHT22;2336;47.822;7.564;2023-04-25T07:38:37;8.50;99.90
4647;DHT22;2336;47.822;7.564;2023-04-25T07:41:06;8.50;99.90
4647;DHT22;2336;47.822;7.564;2023-04-25T07:43:32;8.60;99.90
4647;DHT22;2336;47.822;7.564;2023-04-25T07:45:59;8.70;99.90
4647;DHT22;2336;47.822;7.564;2023-04-25T07:48:26;8.80;99.90
4647;DHT22;2336;47.822;7.564;2023-04-25T07:50:52;9.00;99.90
4647;DHT22;2336;47.822;7.564;2023-04-25T07:53:19;9.00;99.90
4647;DHT22;2336;47.822;7.564;2023-04-25T07:55:46;9.10;99.90
4647;DHT22;2336;47.822;7.564;2023-04-25T07:58:14;9.10;99.90
4647;DHT22;2336;47.822;7.564;2023-04-25T08:00:40;9.10;99.90
4647;DHT22;2336;47.822;7.564;2023-04-25T08:03:09;9.20;99.90
4647;DHT22;2336;47.822;7.564;2023-04-25T08:05:36;9.20;99.90
4647;DHT22;2336;47.822;7.564;2023-04-25T08:08:03;9.30;99.90
4647;DHT22;2336;47.822;7.564;2023-04-25T08:10:31;9.30;99.90
4647;DHT22;2336;47.822;7.564;2023-04-25T08:12:58;9.40;99.90
4647;DHT22;2336;47.822;7.564;2023-04-25T08:15:26;9.50;99.90
4647;DHT22;2336;47.822;7.564;2023-04-25T08:17:53;9.50;99.90
4647;DHT22;2336;47.822;7.564;2023-04-25T08:20:20;9.60;99.90
4647;DHT22;2336;47.822;7.564;2023-04-25T08:22:46;9.60;99.90
4647;DHT22;2336;47.822;7.564;2023-04-25T08:25:14;9.70;99.90
4647;DHT22;2336;47.822;7.564;2023-04-25T08:27:41;9.70;99.90
4647;DHT22;2336;47.822;7.564;2023-04-25T08:30:08;9.80;99.90
4647;DHT22;2336;47.822;7.564;2023-04-25T08:32:36;9.80;99.90
4647;DHT22;2336;47.822;7.564;2023-04-25T08:35:04;9.80;99.90
4647;DHT22;2336;47.822;7.564;2023-04-25T08:37:32;9.90;99.90
4647;DHT22;2336;47.822;7.564;2023-04-25T08:39:58;10.00;99.90
4647;DHT22;2336;47.822;7.564;2023-04-25T08:42:27;10.10;99.90
4647;DHT22;2336;47.822;7.564;2023-04-25T08:44:54;10.20;99.90
4647;DHT22;2336;47.822;7.564;2023-04-25T08:47:22;10.40;99.90
4647;DHT22;2336;47.822;7.564;2023-04-25T08:49:53;10.50;99.90
4647;DHT22;2336;47.822;7.564;2023-04-25T08:52:21;10.70;99.90
4647;DHT22;2336;47.822;7.564;2023-04-25T08:54:49;10.60;99.90
4647;DHT22;2336;47.822;7.564;2023-04-25T08:57:17;10.80;99.90
4647;DHT22;2336;47.822;7.564;2023-04-25T08:59:44;10.90;99.90
4647;DHT22;2336;47.822;7.564;2023-04-25T09:02:12;11.10;99.90
4647;DHT22;2336;47.822;7.564;2023-04-25T09:04:43;11.20;99.90
4647;DHT22;2336;47.822;7.564;2023-04-25T09:07:11;10.90;99.90
4647;DHT22;2336;47.822;7.564;2023-04-25T09:09:41;11.00;99.90
4647;DHT22;2336;47.822;7.564;2023-04-25T09:12:08;11.00;99.90
4647;DHT22;2336;47.822;7.564;2023-04-25T09:14:35;11.10;99.90
4647;DHT22;2336;47.822;7.564;2023-04-25T09:17:03;11.20;99.90
4647;DHT22;2336;47.822;7.564;2023-04-25T09:19:31;11.20;99.90
4647;DHT22;2336;47.822;7.564;2023-04-25T09:21:59;11.30;99.90
4647;DHT22;2336;47.822;7.564;2023-04-25T09:24:32;11.40;99.90
4647;DHT22;2336;47.822;7.564;2023-04-25T09:26:59;11.50;99.90
4647;DHT22;2336;47.822;7.564;2023-04-25T09:29:30;11.60;99.90
4647;DHT22;2336;47.822;7.564;2023-04-25T09:32:18;11.60;99.90
4647;DHT22;2336;47.822;7.564;2023-04-25T09:34:47;11.70;99.90
4647;DHT22;2336;47.822;7.564;2023-04-25T09:37:18;11.60;99.90
4647;DHT22;2336;47.822;7.564;2023-04-25T09:39:47;11.30;99.90
4647;DHT22;2336;47.822;7.564;2023-04-25T09:42:15;11.20;99.90
4647;DHT22;2336;47.822;7.564;2023-04-25T09:44:43;11.20;99.90
4647;DHT22;2336;47.822;7.564;2023-04-25T09:47:11;11.20;99.90
4647;DHT22;2336;47.822;7.564;2023-04-25T09:49:39;11.20;99.90
4647;DHT22;2336;47.822;7.564;2023-04-25T09:52:07;10.70;99.90
4647;DHT22;2336;47.822;7.564;2023-04-25T09:54:34;10.40;99.90
4647;DHT22;2336;47.822;7.564;2023-04-25T09:57:10;10.10;99.90
4647;DHT22;2336;47.822;7.564;2023-04-25T09:59:39;9.80;99.90
4647;DHT22;2336;47.822;7.564;2023-04-25T10:02:09;9.80;99.90
4647;DHT22;2336;47.822;7.564;2023-04-25T10:04:38;9.80;99.90
4647;DHT22;2336;47.822;7.564;2023-04-25T10:07:06;9.90;99.90
4647;DHT22;2336;47.822;7.564;2023-04-25T10:09:33;10.00;99.90
4647;DHT22;2336;47.822;7.564;2023-04-25T10:12:05;9.90;99.90
4647;DHT22;2336;47.822;7.564;2023-04-25T10:14:32;9.90;99.90
4647;DHT22;2336;47.822;7.564;2023-04-25T10:17:00;9.70;99.90
4647;DHT22;2336;47.822;7.564;2023-04-25T10:19:27;9.70;99.90
4647;DHT22;2336;47.822;7.564;2023-04-25T10:22:03;9.70;99.90
4647;DHT22;2336;47.822;7.564;2023-04-25T10:24:30;9.80;99.90
4647;DHT22;2336;47.822;7.564;2023-04-25T10:26:57;9.90;99.90
4647;DHT22;2336;47.822;7.564;2023-04-25T10:29:26;10.30;99.90
4647;DHT22;2336;47.822;7.564;2023-04-25T10:31:53;10.70;99.90
4647;DHT22;2336;47.822;7.564;2023-04-25T10:34:24;11.20;99.90
4647;DHT22;2336;47.822;7.564;2023-04-25T10:36:52;11.50;99.90
4647;DHT22;2336;47.822;7.564;2023-04-25T10:39:23;11.50;99.90
4647;DHT22;2336;47.822;7.564;2023-04-25T10:41:55;11.70;99.90
4647;DHT22;2336;47.822;7.564;2023-04-25T10:44:22;11.70;99.90
4647;DHT22;2336;47.822;7.564;2023-04-25T10:46:50;11.80;99.90
4647;DHT22;2336;47.822;7.564;2023-04-25T10:49:33;11.80;99.90
4647;DHT22;2336;47.822;7.564;2023-04-25T10:52:18;12.00;99.90
4647;DHT22;2336;47.822;7.564;2023-04-25T10:54:49;12.10;99.90
4647;DHT22;2336;47.822;7.564;2023-04-25T10:57:28;12.40;99.90
4647;DHT22;2336;47.822;7.564;2023-04-25T10:59:58;12.60;99.90
4647;DHT22;2336;47.822;7.564;2023-04-25T11:02:28;12.70;99.90
4647;DHT22;2336;47.822;7.564;2023-04-25T11:04:54;12.80;99.90
4647;DHT22;2336;47.822;7.564;2023-04-25T11:07:29;12.80;99.90
4647;DHT22;2336;47.822;7.564;2023-04-25T11:09:57;12.70;99.90
4647;DHT22;2336;47.822;7.564;2023-04-25T11:12:27;12.60;99.90
4647;DHT22;2336;47.822;7.564;2023-04-25T11:14:58;12.40;99.90
4647;DHT22;2336;47.822;7.564;2023-04-25T11:17:28;12.30;99.90
4647;DHT22;2336;47.822;7.564;2023-04-25T11:19:55;12.20;99.90
4647;DHT22;2336;47.822;7.564;2023-04-25T11:22:22;12.00;99.90
4647;DHT22;2336;47.822;7.564;2023-04-25T11:24:49;11.40;99.90
4647;DHT22;2336;47.822;7.564;2023-04-25T11:27:16;11.30;99.90
4647;DHT22;2336;47.822;7.564;2023-04-25T11:29:43;11.00;99.90
4647;DHT22;2336;47.822;7.564;2023-04-25T11:32:09;10.90;99.90
4647;DHT22;2336;47.822;7.564;2023-04-25T11:34:37;10.80;99.90
4647;DHT22;2336;47.822;7.564;2023-04-25T11:37:04;10.50;99.90
4647;DHT22;2336;47.822;7.564;2023-04-25T11:39:31;10.40;99.90
4647;DHT22;2336;47.822;7.564;2023-04-25T11:41:58;10.60;99.90
4647;DHT22;2336;47.822;7.564;2023-04-25T11:44:26;11.10;99.90
4647;DHT22;2336;47.822;7.564;2023-04-25T11:46:55;11.60;99.90
4647;DHT22;2336;47.822;7.564;2023-04-25T11:49:21;11.90;99.90
4647;DHT22;2336;47.822;7.564;2023-04-25T11:51:51;11.90;99.90
4647;DHT22;2336;47.822;7.564;2023-04-25T11:54:18;12.00;99.90
4647;DHT22;2336;47.822;7.564;2023-04-25T11:56:45;12.10;99.90
4647;DHT22;2336;47.822;7.564;2023-04-25T11:59:12;12.10;99.90
4647;DHT22;2336;47.822;7.564;2023-04-25T12:01:47;12.40;99.90
4647;DHT22;2336;47.822;7.564;2023-04-25T12:04:16;12.30;99.90
4647;DHT22;2336;47.822;7.564;2023-04-25T12:06:43;12.40;99.90
4647;DHT22;2336;47.822;7.564;2023-04-25T12:09:14;12.80;99.90
4647;DHT22;2336;47.822;7.564;2023-04-25T12:11:44;13.40;99.90
4647;DHT22;2336;47.822;7.564;2023-04-25T12:14:11;14.00;99.90
4647;DHT22;2336;47.822;7.564;2023-04-25T12:16:41;14.60;99.90
4647;DHT22;2336;47.822;7.564;2023-04-25T12:19:09;15.00;99.90
4647;DHT22;2336;47.822;7.564;2023-04-25T12:21:37;15.10;99.90
4647;DHT22;2336;47.822;7.564;2023-04-25T12:24:11;15.40;99.90
4647;DHT22;2336;47.822;7.564;2023-04-25T12:26:50;15.30;99.90
4647;DHT22;2336;47.822;7.564;2023-04-25T12:29:21;14.60;99.90
4647;DHT22;2336;47.822;7.564;2023-04-25T12:31:49;14.40;99.90
4647;DHT22;2336;47.822;7.564;2023-04-25T12:34:16;14.30;99.90
4647;DHT22;2336;47.822;7.564;2023-04-25T12:36:43;14.00;99.90
4647;DHT22;2336;47.822;7.564;2023-04-25T12:39:14;13.70;99.90
4647;DHT22;2336;47.822;7.564;2023-04-25T12:41:41;13.30;99.90
4647;DHT22;2336;47.822;7.564;2023-04-25T12:44:09;12.70;99.90
4647;DHT22;2336;47.822;7.564;2023-04-25T12:46:37;12.20;99.90
4647;DHT22;2336;47.822;7.564;2023-04-25T12:49:03;11.60;99.90
4647;DHT22;2336;47.822;7.564;2023-04-25T12:51:31;10.90;99.90
4647;DHT22;2336;47.822;7.564;2023-04-25T12:53:58;10.40;99.90
4647;DHT22;2336;47.822;7.564;2023-04-25T12:56:25;9.90;99.90
4647;DHT22;2336;47.822;7.564;2023-04-25T12:58:52;9.60;99.90
4647;DHT22;2336;47.822;7.564;2023-04-25T13:01:20;9.40;99.90
4647;DHT22;2336;47.822;7.564;2023-04-25T13:03:47;9.30;99.90
4647;DHT22;2336;47.822;7.564;2023-04-25T13:06:14;9.20;99.90
4647;DHT22;2336;47.822;7.564;2023-04-25T13:08:41;9.30;99.90
4647;DHT22;2336;47.822;7.564;2023-04-25T13:11:08;9.40;99.90
4647;DHT22;2336;47.822;7.564;2023-04-25T13:13:35;9.70;99.90
4647;DHT22;2336;47.822;7.564;2023-04-25T13:16:02;9.80;99.90
4647;DHT22;2336;47.822;7.564;2023-04-25T13:18:31;9.90;99.90
4647;DHT22;2336;47.822;7.564;2023-04-25T13:20:59;10.10;99.90
4647;DHT22;2336;47.822;7.564;2023-04-25T13:23:27;10.10;99.90
4647;DHT22;2336;47.822;7.564;2023-04-25T13:25:55;9.90;99.90
4647;DHT22;2336;47.822;7.564;2023-04-25T13:28:23;10.10;99.90
4647;DHT22;2336;47.822;7.564;2023-04-25T13:30:50;10.00;99.90
4647;DHT22;2336;47.822;7.564;2023-04-25T13:33:17;10.20;99.90
4647;DHT22;2336;47.822;7.564;2023-04-25T13:35:45;10.10;99.90
4647;DHT22;2336;47.822;7.564;2023-04-25T13:38:19;10.20;99.90
4647;DHT22;2336;47.822;7.564;2023-04-25T13:40:46;10.10;99.90
4647;DHT22;2336;47.822;7.564;2023-04-25T13:43:12;10.30;99.90
4647;DHT22;2336;47.822;7.564;2023-04-25T13:45:39;10.40;99.90
4647;DHT22;2336;47.822;7.564;2023-04-25T13:48:06;10.40;99.90
4647;DHT22;2336;47.822;7.564;2023-04-25T13:50:33;10.20;99.90
4647;DHT22;2336;47.822;7.564;2023-04-25T13:53:01;10.10;99.90
4647;DHT22;2336;47.822;7.564;2023-04-25T13:55:27;10.10;99.90
4647;DHT22;2336;47.822;7.564;2023-04-25T13:57:54;10.10;99.90
4647;DHT22;2336;47.822;7.564;2023-04-25T14:00:21;10.20;99.90
4647;DHT22;2336;47.822;7.564;2023-04-25T14:02:48;10.40;99.90
4647;DHT22;2336;47.822;7.564;2023-04-25T14:05:14;10.90;99.90
4647;DHT22;2336;47.822;7.564;2023-04-25T14:07:41;11.70;99.90
4647;DHT22;2336;47.822;7.564;2023-04-25T14:10:10;12.30;99.90
4647;DHT22;2336;47.822;7.564;2023-04-25T14:12:37;12.80;99.90
4647;DHT22;2336;47.822;7.564;2023-04-25T14:15:04;13.00;99.90
4647;DHT22;2336;47.822;7.564;2023-04-25T14:17:31;13.10;99.90
4647;DHT22;2336;47.822;7.564;2023-04-25T14:19:58;13.00;99.90
4647;DHT22;2336;47.822;7.564;2023-04-25T14:22:25;12.80;99.90
4647;DHT22;2336;47.822;7.564;2023-04-25T14:24:52;12.60;99.90
4647;DHT22;2336;47.822;7.564;2023-04-25T14:27:20;12.40;99.90
4647;DHT22;2336;47.822;7.564;2023-04-25T14:29:46;12.30;99.90
4647;DHT22;2336;47.822;7.564;2023-04-25T14:32:13;12.20;99.90
4647;DHT22;2336;47.822;7.564;2023-04-25T14:34:40;12.20;99.90
4647;DHT22;2336;47.822;7.564;2023-04-25T14:37:07;12.10;99.90
4647;DHT22;2336;47.822;7.564;2023-04-25T14:39:34;12.10;99.90
4647;DHT22;2336;47.822;7.564;2023-04-25T14:42:02;11.90;99.90
4647;DHT22;2336;47.822;7.564;2023-04-25T14:44:30;11.90;99.90
4647;DHT22;2336;47.822;7.564;2023-04-25T14:46:56;11.80;99.90
4647;DHT22;2336;47.822;7.564;2023-04-25T14:49:23;11.70;99.90
4647;DHT22;2336;47.822;7.564;2023-04-25T14:51:50;11.00;99.90
4647;DHT22;2336;47.822;7.564;2023-04-25T14:54:16;10.50;99.90
4647;DHT22;2336;47.822;7.564;2023-04-25T14:56:43;10.00;99.90
4647;DHT22;2336;47.822;7.564;2023-04-25T14:59:10;9.50;99.90
4647;DHT22;2336;47.822;7.564;2023-04-25T15:01:38;9.00;99.90
4647;DHT22;2336;47.822;7.564;2023-04-25T15:04:05;8.80;99.90
4647;DHT22;2336;47.822;7.564;2023-04-25T15:06:33;8.70;99.90
4647;DHT22;2336;47.822;7.564;2023-04-25T15:09:00;8.80;99.90
4647;DHT22;2336;47.822;7.564;2023-04-25T15:11:27;8.80;99.90
4647;DHT22;2336;47.822;7.564;2023-04-25T15:13:53;8.80;99.90
4647;DHT22;2336;47.822;7.564;2023-04-25T15:16:20;8.90;99.90
4647;DHT22;2336;47.822;7.564;2023-04-25T15:18:48;9.00;99.90
4647;DHT22;2336;47.822;7.564;2023-04-25T15:21:15;9.20;99.90
4647;DHT22;2336;47.822;7.564;2023-04-25T15:23:41;9.30;99.90
4647;DHT22;2336;47.822;7.564;2023-04-25T15:26:08;9.40;99.90
4647;DHT22;2336;47.822;7.564;2023-04-25T15:28:36;9.40;99.90
4647;DHT22;2336;47.822;7.564;2023-04-25T15:31:03;9.50;99.90
4647;DHT22;2336;47.822;7.564;2023-04-25T15:33:29;9.60;99.90
4647;DHT22;2336;47.822;7.564;2023-04-25T15:35:57;9.50;99.90
4647;DHT22;2336;47.822;7.564;2023-04-25T15:38:24;9.40;99.90
4647;DHT22;2336;47.822;7.564;2023-04-25T15:40:52;9.40;99.90
4647;DHT22;2336;47.822;7.564;2023-04-25T15:43:19;9.40;99.90
4647;DHT22;2336;47.822;7.564;2023-04-25T15:45:45;9.50;99.90
4647;DHT22;2336;47.822;7.564;2023-04-25T15:48:12;9.50;99.90
4647;DHT22;2336;47.822;7.564;2023-04-25T15:50:39;9.50;99.90
4647;DHT22;2336;47.822;7.564;2023-04-25T15:53:08;9.70;99.90
4647;DHT22;2336;47.822;7.564;2023-04-25T15:55:35;9.80;99.90
4647;DHT22;2336;47.822;7.564;2023-04-25T15:58:02;9.80;99.90
4647;DHT22;2336;47.822;7.564;2023-04-25T16:00:29;9.70;99.90
4647;DHT22;2336;47.822;7.564;2023-04-25T16:02:55;9.60;99.90
4647;DHT22;2336;47.822;7.564;2023-04-25T16:05:22;9.50;99.90
4647;DHT22;2336;47.822;7.564;2023-04-25T16:07:49;9.40;99.90
4647;DHT22;2336;47.822;7.564;2023-04-25T16:10:19;9.30;99.90
4647;DHT22;2336;47.822;7.564;2023-04-25T16:12:46;9.30;99.90
4647;DHT22;2336;47.822;7.564;2023-04-25T16:15:14;9.30;99.90